AirNav   Air Wisconsin Up To $57,000 Bonus
 
 858 users online  

KNGU Norfolk Naval Station (Chambers Field)
Norfolk, Virginia, USA

GOING TO NORFOLK?


FAA INFORMATION EFFECTIVE 26 JANUARY 2023

Location

FAA Identifier: NGU
Lat/Long: 36-56-14.8870N 076-17-21.4010W
36-56.248117N 076-17.356683W
36.9374686,-76.2892781
(estimated)
Elevation: 14.8 ft. / 4.5 m (surveyed)
Variation: 10W (1990)
Time zone: UTC -5 (UTC -4 during Daylight Saving Time)
Zip code: 23503

Airport Operations

Airport use: Private use. Permission required prior to landing
Activation date: 04/1943
Control tower: yes
ARTCC: WASHINGTON CENTER
FSS: LEESBURG FLIGHT SERVICE STATION
NOTAMs facility: NGU (NOTAM-D service available)
Attendance: CONTINUOUS
CLSD 0400Z FOURTH THU NOV - 1200Z FOURTH FRI NOV, CLSD 1900Z 24 DEC - 1200Z 26 DEC, CLSD 1900Z 31 DEC - 1200Z 2 JAN.
Segmented circle: no
Lights: AVBL ONLY DURING HRS OF OPERATION.
Beacon: white-white-green (lighted military airport)
Operates sunset to sunrise.

Airport Communications

ATIS: 118.425 342.0
CHAMBERS GROUND: 121.8 298.95 ;NAVY NORFOLK HELIN 370.85
CHAMBERS TOWER: 124.3 126.375 ;NAVY NORFOLK HELIN 290.5 ;NAVY NORFOLK HELIN 379.15
NORFOLK APPROACH: 118.9 ;010-310 125.7 ;311-009
NORFOLK DEPARTURE: 125.7 ;311-009
CLEARANCE DELIVERY: 120.7 339.8
AMC/ATOC: 130.65 349.5
BASE OPS: 134.1 268.8
EMERG: 121.5 243.0
PMSV METRO: 271.6
WX ASOS at ORF (5 nm SE): PHONE 757-460-9348
WX AWOS-3PT at PVG (12 nm SW): 118.375 (757-465-2175)
WX ASOS at NTU (14 nm SE): PHONE DSN 433-3619 or 757-433-3619
WX ASOS at PHF (15 nm NW): PHONE 757-874-3682
WX AWOS-3 at CPK (16 nm S): 123.675 (757-204-4290)
  • NOTIFY CHAMBERS OPNS ON FREQ 268.8 ON ALL VIP FLIGHTS 15 MIN PRIOR TO ARRIVAL.
  • ALL RADAR FREQUENCIES ARE ON REQUEST.

Nearby radio navigation aids

VOR radial/distance  VOR name  Freq  Var
ORFr310/5.1NORFOLK VORTAC116.9007W
CCVr220/28.3CAPE CHARLES VORTAC112.2010W
HCMr154/36.7HARCUM VORTAC108.8007W
FKNr078/37.2FRANKLIN VORTAC110.6009W

 
NDB name  Hdg/Dist  Freq  Var  ID
INGLE352/6.132909WOR --- .-.
WAKEFIELD106/34.227411WAKQ .- -.- --.-

Airport Services

Bottled oxygen: NONE
Bulk oxygen: HIGH/LOW

Runway Information

Runway 10/28

Dimensions: 8370 x 200 ft. / 2551 x 61 m
Surface: asphalt/grooved
Weight bearing capacity: 
PCN 56 /R/B/W/T
Runway edge lights: high intensity
RUNWAY 10  RUNWAY 28
Latitude: 36-56.247967N36-56.248162N
Longitude: 076-18.215905W076-16.497447W
Elevation: 13.2 ft.12.5 ft.
Traffic pattern: leftright
Runway heading: 100 magnetic, 090 true280 magnetic, 270 true
Displaced threshold: 299 ft.995 ft.
Declared distances: TORA:8370 LDA:8071TORA:8370 LDA:7375
Markings: precision, in good conditionprecision, in good condition
Visual slope indicator: 4-light PAPI on right (3.00 degrees glide path)4-light PAPI on right (3.00 degrees glide path)
Approach lights: ALSF2: standard 2,400 foot high intensity approach lighting system with centerline sequenced flashers (category II or III)
OLS RWY 10.
SSALF: simplified short approach lighting system with sequenced flashers
OLS RWY 28.
Runway end identifier lights: yesyes
Centerline lights: yesyes
Touchdown point: yes, lightedyes, lighted
Instrument approach: ILS/DME

Airport Ownership and Management from official FAA records

Ownership: U.S. Navy
Owner: U.S. NAVY
OCEANOGRAPHIC OFC-CODE 3142
WASHINGTON, DC 20373
Manager: COMMANDING OFFICER
NAVAL AIR STATION
NORFOLK, VA 23511

Additional Remarks

E60-28 HOOK E28 (B) (1062 FT).
E60-10 HOOK E28(B) (1500 FT).
AOE.
CAUTION: EXTV FISH SPOTTER ACFT ACT (SENG GENERAL AVIATION ACFT) UPWARDS FR 1500 FT OVER CHESAPEAKE BAY AND ADJ COASTAL WATERS. EXTV VFR TFC OPR W OF CHAMBERS CLASS D AND NORFOLK CLASS C AIRSPACE. BIRD HAZ.
TFC PAT: R TFC RWY 28. BASIC F/W/VFR MIN 1000 FT AND 3 NM.
NS ABTMT: NO PRACTICE APCH 0400-1200Z++ MON-SAT; 0400-1800Z++ SUN. OT BY NOTAM. NO COPTER OVFT WILLOUGHBY SPIT EXC VIA PT XRAY (CHAMBERS TACAN R-042/1.5 DME) OR PT YANKEE (CHAMBERS TACAN R-009/1.8 DME) AT 500 FT.
CSTMS/AG/IMG: CSTMS AVBL WITH 2 HR PN. AG AVBL 1300-2400Z++ MON-FRI. IMG AVBL 1300-2100Z++ MON-FRI. AG/IMG AVBL OT ON OVERTIME BASIS ONLY, PRIOR ARNG RQR.
MISC: RWY 10/28 GROOVED.
CAUTION: ARR/DEP TCAS EQUIPPED ACFT SHOULD EXPECT NUMEROUS TCAS ALERTS FROM SHIP TRANSPONDER HARBORED OR TRANSITING INTO/OUT OF THE CHESAPEAKE AND COASTAL WATERS.
ARR/DEP TCAS EQUIPED ACFT SHOULD EXPECT NUMEROUS TCAS ALERTS FROM SHIP TRANSPONDER OR TRANSMITTING INTO/OUT OF THE CHESAPEAKE AND COASTAL WATERS.
CAUTION - DO NOT MISTAKE NORFOLK INTL 5 NM SE FOR CHAMBERS FIELD, WHILE INBD ON TACAN/RNAV RWY 28 APCHS. CHAMBERS FIELD HAS A SINGLE RWY; NORFOLK INTL HAS INTERSECTING RWYS.
RSTD - PPR FOR NON CHAMBERS FIELD BASED ACFT. DSN 262-3419/3429 C757-322-3419/3429.
AMC/ATOC DSN 564-4735/3922, C757-444-4735/3922. ACFT UTILIZING AMC TRML CTC ATOC/AMC TRML 15 MIN PRIOR ARR WITH LOAD RPT. ACFT OVERSEAS CTC AMC/ATOC VIA FONE PATCH 2 HR PRIOR ARR FOR CSTM. ALL OTHER ACFT, CTC BASE OPS 15 MIN PRIR ARR.
MISC- FLT PLANS FOR NS NORFOLK, CHAMBERS FLD, AND NAS OCEANA SHOULD BE FAXED TO DSN 565-9680, C757-445-9680, OR EMAILED TO KNGU.FLTPLNG.FCT@NAVY.MIL. TO CFM RECEIPT OF FLT PLANS CALL NS NORFOLK, CHAMBERS FLD FLT PLANNING SUPERVISOR AT DSN 262-3419/3429, C757-322-3419/3429.
CAUTION - RWY 28 MULTIPLE CRANES 1.2 NM TO 1.3 NM FM DER 1600 FT L TO 4000 FT R OF CNTRLN, 260 FT MSL.
FOR CIVIL ACFT LNDG PERMIT (CALP) INFO CTC AFLD MGR C757-322-3419/3429.
ILS/TACAN/RADAR - ILS OR LOC/DME RWY 10 - BC UNUSED. ILS AND TACAN NO NOTAM MP WED 1230-1630Z++. RADAR - SEE TERMINAL FLIP FOR RADAR MINIMA.
A-GEAR: AVOID CNTRLN LGT RWY 10/28 DUR CABLE ENGAGEMENT TO PREVENT TAILHOOK SKIP. DIST RWY 28 MEASURED FR DISPL THR. E-28(B) IN RAISED POSN AT DEP END OF RWY NMLLY. SHORTFLD GEAR AVBL WITH 20 MIN PN.
JASU:(NC-10C) (NC-8A/A1) (NCPP-105 CTC AIR OPS DUTY OFFICER TO ENSURE AVBL).
FUEL: NO TRAN COPTER HOT PIT WO PRIOR COORD WITH HOST SQUADRON. J5.
FLUID: ADI SP PRESAIR LHOX LOX.
OIL: UNAVBL.
TRAN ALERT: LTD TRAN MAINT AVBL WKEND ONLY 1200-2000Z++. TRAN MAINT UNAVBL OT. 2 HR PN RQR FOR LOX. LAVATORY SVC UNAVBL FOR C-130 ACFT. POTABLE WATER UNAVBL. NO TRAN WORK/MSN PLANNING/BRIEFING SPACES OR COMSEC STOR FOR DETS.
RSTD: TWY B CLSD S OF TWY F AND TWY D CLSD E OF TWY S UFN.

Instrument Procedures

NOTE: All procedures below are presented as PDF files. If you need a reader for these files, you should download the free Adobe Reader.

NOT FOR NAVIGATION. Please procure official charts for flight.
FAA instrument procedures published for use from 26 January 2023 at 0901Z to 23 February 2023 at 0900z.

 
STARs - Standard Terminal Arrivals
DRONE TWO   2 pages: [1] [2] (287KB)
TERKS TWO   download (183KB)
 
IAPs - Instrument Approach Procedures
ILS OR LOC/DME RWY 10 **CHANGED**   download (174KB)
RNAV (GPS) RWY 10 **CHANGED**   download (172KB)
RNAV (GPS) RWY 28 **CHANGED**   download (170KB)
HI-TACAN Y RWY 10 **NEW**   download (218KB)
HI-TACAN Y RWY 28 **NEW**   download (218KB)
TACAN Z RWY 10 **NEW**   download (162KB)
TACAN Z RWY 28 **NEW**   download (160KB)
Radar Approach Procedures available **CHANGED**   download
 
CHAMBERS ONE (OBSTACLE)   2 pages: [1] [2] (241KB)
NOTE: Special Take-Off Minimums/Departure Procedures apply **CHANGED**   download

Other nearby airports with instrument procedures:

KNHU - Norfolk Naval Station Airport (1 nm NW)
KORF - Norfolk International Airport (5 nm SE)
KLFI - Langley Air Force Base (9 nm N)
KPVG - Hampton Roads Executive Airport (12 nm SW)
KNTU - Oceana Naval Air Station (Apollo Soucek Field) (14 nm SE)
KPHF - Newport News/Williamsburg International Airport (15 nm NW)
KCPK - Chesapeake Regional Airport (16 nm S)
KFAF - Felker Army Airfield (19 nm NW)
 
Loc | Ops | Rwys | IFR | FBO | Links
Com | Nav | Svcs | Stats | Notes
Area around KNGU (Norfolk Naval Station (Chambers Field))
 
Road maps at: MapQuest Bing Google
 
Aerial photo
WARNING: Photo may not be current or correct
Aerial photo of KNGU (Norfolk Naval Station (Chambers Field))
Photo by David Newcomer
Photo taken 10-Sep-2019
looking southeast from 5,000'.

Do you have a better or more recent aerial photo of Norfolk Naval Station (Chambers Field) that you would like to share? If so, please send us your photo.

 
Sectional chart

 
Airport diagram
Diagram of KNGU (Norfolk Naval Station (Chambers Field))
Download PDF
of official airport diagram from the FAA

 
Airport distance calculator
Flying to Norfolk Naval Station (Chambers Field)? Find the distance to fly.

From to KNGU

Sunrise and sunset
Times for 30-Jan-2023
 Local
(UTC-5)
 Zulu
(UTC)
Morning civil twilight06:4311:43
Sunrise07:1012:10
Sunset17:2722:27
Evening civil twilight17:5422:54

Current date and time
Zulu (UTC)  31-Jan-2023 04:52:05
Local (UTC-5)  30-Jan-2023 23:52:05
 
METAR
KNGU 
2nm SE 
310359Z 21004KT 2 1/2SM BR FEW017 SCT150 11/08 A3017 RMK AO2 VIS 1 1/2V3 SLP217 T01060078 $
KORF 
5nm SE 
310437Z 21006KT 2SM BR CLR 08/08 A3015 RMK AO2 T00780078 $
KLFI 
9nm NW 
310430Z AUTO 18005KT 7SM CLR 09/09 A3014 RMK AO2 VIS 1 3/4 RWY26 SLP213 $
KPVG 
12nm SW 
310441Z 22003KT 2SM CLR 07/07 A3017 RMK AO2 SLP302 PWINO PNO FZRANO RVRNO
KNTU 
15nm SE 
310431Z 23005KT 1SM BR SCT002 BKN070 09/09 A3015 RMK AO2 T00940089
KPHF 
15nm NW 
310441Z AUTO 24004KT 3/4SM BR VV001 08/08 A3016 RMK AO2 RAB11E30 P0000 T00830083
KCPK 
16nm S 
310435Z AUTO 00000KT 2SM OVC004 09/08 A3016 RMK AO2 T00890083
KNFE 
16nm SE 
310437Z AUTO 00000KT 6SM BR BKN004 11/09 A3016 RMK AO2 T01060089
KFAF 
19nm NW 
310416Z AUTO 00000KT 3/8SM FG FEW000 08/07 A3013 RMK AO2 SLP207 RVRNO $
TAF
KNGU 
2nm SE 
3023/3123 VRB04KT 9999 SCT015 SCT050 QNH3009INS BECMG 3104/3106 23006KT 8000 BR SCT005 BKN012 QNH3012INS TEMPO 3109/3115 1600 BR OVC008 BECMG 3113/3115 02010KT 6000 BR VCSH BKN006 OVC020 QNH3017INS TEMPO 3117/3123 4800 RA BR OVC005 T11/3115Z T06/3122Z FN20075
KORF 
5nm SE 
310218Z 3102/3124 20003KT 1 1/2SM BR BKN002 TEMPO 3102/3105 1/2SM FG VV002 FM310600 23003KT 3/4SM BR VV002 FM311300 26003KT 2SM BR OVC003 FM311500 01008KT 4SM BR OVC004 FM311900 04008KT 3SM -RA BR OVC004
KLFI 
9nm NW 
310200Z 3102/0108 VRB06KT 6000 BR SCT015 QNH3011INS BECMG 3107/3108 VRB06KT 8000 BR FEW010 SCT025 BKN040 QNH3010INS BECMG 3109/3110 23006KT 8000 BR BKN005 OVC015 QNH3011INS BECMG 3111/3112 24009KT 8000 BR FEW020 BKN030 OVC120 QNH3013INS BECMG 3114/3115 35006KT 9000 BR BKN005 OVC015 QNH3016INS BECMG 3117/3118 01015KT 9000 DZ OVC005 QNH3015INS BECMG 0102/0103 03012KT 9999 NSW OVC006 QNH3012INS BECMG 0107/0108 02012KT 9000 DZ BKN006 OVC015 QNH3013INS TX10/3109Z TN05/0101Z
KNTU 
15nm SE 
3023/3123 VRB05KT 9999 SCT015 SCT250 QNH3009INS TEMPO 3100/3106 0800 FG BKN003 BKN010 FM310600 VRB04KT 6000 BR BKN008 QNH3010INS TEMPO 3106/3112 3200 FG VV002 FM311400 01008KT 4800 SHRA BR OVC006 QNH3018INS T11/3023Z T06/3119Z AMD 0040 FN20051
KPHF 
15nm NW 
310217Z 3102/3124 00000KT 1 1/2SM BR BKN003 TEMPO 3102/3105 1/2SM FG VV003 FM310500 00000KT 3/4SM BR VV002 FM311300 35004KT 2SM BR OVC003 FM311500 01006KT 4SM BR OVC004 FM311800 05008KT 3SM -RA BR OVC004
KFAF 
19nm NW 
310400Z 3104/0109 VRB03KT 2800 BR SKC QNH3013INS BECMG 3104/3105 VRB03KT 4800 BR SCT015 QNH3013INS BECMG 3107/3108 VRB06KT 6000 BR BKN010 BKN030 QNH3013INS BECMG 3113/3114 VRB03KT 9999 NSW SCT030 QNH3020INS BECMG 3116/3117 03009KT 8000 -RA BKN015 BKN050 QNH3018INS BECMG 3118/3119 04009KT 8000 -RA BKN007 OVC025 QNH3018INS TEMPO 3119/3123 04012G18KT BECMG 0101/0102 04009KT 9000 -RA OVC005 QNH3017INS TX10/3115Z TN05/0103Z LAST NO AMDS AFT 3104 NEXT 3111
NOTAMs
Click for the latest NOTAMs
NOTAMs are issued by the DoD/FAA and will open in a separate window not controlled by AirNav.

 

 
 

Would you like to see your business listed on this page?

 If your business provides an interesting product or service to pilots, flight crews, aircraft, or users of the Norfolk Naval Station (Chambers Field), you should consider listing it here.  To start the listing process, click on the button below
 
Add a business
 

Other Pages about Norfolk Naval Station (Chambers Field)

Update a link
 
Copyright © AirNav, LLC. All rights reserved. Privacy Policy  Contact